Aérodrome :
LOGIN :

S'inscrire | Disclaimer

   EN    FR    IT 

 










Légende :    VFR   VFR Marginal   IFR   IFR Intensif   IFR Très Intensif
Visi : 
Plafond : 
>= 8 km
>= 3000ft
5 à 8 km
1000 à 3000 ft
1500m à 5 km
500 à 1000 ft
800 à 1500m
200 à 500 ft
< 800m
< 200 ft
Symboles :   Orages  Brouillard  Fortes neiges  Fortes précipitations  Vent > 20 kt
SIGMETs :   Divers  Orages  Givrage  Turbulence  Onde Orograph.  Cendres Volcan.







- Altitude de l'aérodrome : 147 ft
- Code IATA : DUS


EDDL - Düsseldorf Int.

DERNIER METAR :
  • 201420Z 24008KT 9999 SCT045 BKN060 16/09 Q1020 NOSIG

METARs EXPIRÉS :
  • 201350Z 26008KT 9999 SCT038 BKN060 16/09 Q1020 NOSIG
  • 201320Z 23008KT 190V260 9999 SCT038 BKN060 16/08 Q1020 NOSIG
  • 201250Z 24009KT 9999 SCT038 BKN060 17/08 Q1020 NOSIG
  • 201220Z 25010KT 9999 SCT037 BKN060 15/08 Q1020 NOSIG
  • 201150Z 23010KT 9999 FEW041 BKN100 17/09 Q1020 NOSIG

TAF TAF EDDL
Valide du 20 à 12h jusqu'au 21 à 18h UTC


201100Z 2012/2118 24007KT 9999 SCT045
BECMG 2017/2020 16006KT
PROB30
TEMPO 2103/2107 15011KT
Pas de NOTAMs connus pour ce terrain.



MET'MAP, la Météo Aéronautique d'un coup d'oeil ! - Copyright ORBIFLY Décembre 2007 - Disclaimer

ORBIFLY MET'MAP TEAM :

Programmation & Développement : Alexandra Zaïnal
Conception & Développement : Baudouin d'Aumeries
Co-Programmation & Développement : Marc-Olivier Méhu
Soutien technique & logistique : Manuel Goepfert

Contact : metmap@orbifly.com




SOURCES & CREDITS :

   NOAA